sensor_id;sensor_type;location;lat;lon;timestamp;temperature;humidity
72114;SHT31;59989;46.220;19.888;2022-08-03T00:01:35;20.24;68.08
72114;SHT31;59989;46.220;19.888;2022-08-03T00:04:38;20.17;68.09
72114;SHT31;59989;46.220;19.888;2022-08-03T00:07:40;20.09;68.02
72114;SHT31;59989;46.220;19.888;2022-08-03T00:10:43;20.09;68.23
72114;SHT31;59989;46.220;19.888;2022-08-03T00:13:45;20.09;68.05
72114;SHT31;59989;46.220;19.888;2022-08-03T00:16:48;20.09;68.42
72114;SHT31;59989;46.220;19.888;2022-08-03T00:19:50;20.15;67.59
72114;SHT31;59989;46.220;19.888;2022-08-03T00:22:53;20.17;67.66
72114;SHT31;59989;46.220;19.888;2022-08-03T00:25:55;20.09;67.59
72114;SHT31;59989;46.220;19.888;2022-08-03T00:28:58;20.05;68.00
72114;SHT31;59989;46.220;19.888;2022-08-03T00:32:00;19.98;67.90
72114;SHT31;59989;46.220;19.888;2022-08-03T00:35:04;19.95;68.34
72114;SHT31;59989;46.220;19.888;2022-08-03T00:38:10;19.87;68.51
72114;SHT31;59989;46.220;19.888;2022-08-03T00:41:12;19.82;68.69
72114;SHT31;59989;46.220;19.888;2022-08-03T00:44:16;19.82;68.82
72114;SHT31;59989;46.220;19.888;2022-08-03T00:47:19;19.75;70.59
72114;SHT31;59989;46.220;19.888;2022-08-03T00:50:23;19.71;69.36
72114;SHT31;59989;46.220;19.888;2022-08-03T00:53:26;19.67;69.59
72114;SHT31;59989;46.220;19.888;2022-08-03T00:56:29;19.70;68.74
72114;SHT31;59989;46.220;19.888;2022-08-03T00:59:31;19.70;68.41
72114;SHT31;59989;46.220;19.888;2022-08-03T01:02:34;19.70;68.63
72114;SHT31;59989;46.220;19.888;2022-08-03T01:12:31;19.60;69.10
72114;SHT31;59989;46.220;19.888;2022-08-03T01:15:45;19.59;69.75
72114;SHT31;59989;46.220;19.888;2022-08-03T01:25:47;19.78;69.50
72114;SHT31;59989;46.220;19.888;2022-08-03T01:32:13;19.54;69.75
72114;SHT31;59989;46.220;19.888;2022-08-03T01:35:40;19.51;70.85
72114;SHT31;59989;46.220;19.888;2022-08-03T01:38:49;19.57;70.27
72114;SHT31;59989;46.220;19.888;2022-08-03T01:41:58;19.56;70.12
72114;SHT31;59989;46.220;19.888;2022-08-03T01:45:03;19.50;70.33
72114;SHT31;59989;46.220;19.888;2022-08-03T01:48:07;19.49;70.56
72114;SHT31;59989;46.220;19.888;2022-08-03T01:51:11;19.46;70.54
72114;SHT31;59989;46.220;19.888;2022-08-03T01:54:15;19.46;70.88
72114;SHT31;59989;46.220;19.888;2022-08-03T01:57:20;19.42;70.63
72114;SHT31;59989;46.220;19.888;2022-08-03T02:00:24;19.30;71.15
72114;SHT31;59989;46.220;19.888;2022-08-03T02:03:28;19.24;70.99
72114;SHT31;59989;46.220;19.888;2022-08-03T02:06:34;19.20;71.07
72114;SHT31;59989;46.220;19.888;2022-08-03T02:10:00;19.19;71.57
72114;SHT31;59989;46.220;19.888;2022-08-03T02:13:06;19.13;71.88
72114;SHT31;59989;46.220;19.888;2022-08-03T02:16:10;19.03;71.62
72114;SHT31;59989;46.220;19.888;2022-08-03T02:19:15;18.99;72.11
72114;SHT31;59989;46.220;19.888;2022-08-03T02:22:18;18.85;72.27
72114;SHT31;59989;46.220;19.888;2022-08-03T02:25:23;18.81;72.73
72114;SHT31;59989;46.220;19.888;2022-08-03T02:28:34;18.76;73.44
72114;SHT31;59989;46.220;19.888;2022-08-03T02:31:38;18.69;73.84
72114;SHT31;59989;46.220;19.888;2022-08-03T02:34:45;18.65;73.76
72114;SHT31;59989;46.220;19.888;2022-08-03T02:37:55;18.61;74.25
72114;SHT31;59989;46.220;19.888;2022-08-03T02:41:04;18.57;74.28
72114;SHT31;59989;46.220;19.888;2022-08-03T02:44:10;18.51;74.96
72114;SHT31;59989;46.220;19.888;2022-08-03T02:47:14;18.44;74.77
72114;SHT31;59989;46.220;19.888;2022-08-03T02:50:19;18.37;75.04
72114;SHT31;59989;46.220;19.888;2022-08-03T02:53:24;18.38;74.66
72114;SHT31;59989;46.220;19.888;2022-08-03T02:56:28;18.37;75.76
72114;SHT31;59989;46.220;19.888;2022-08-03T02:59:32;18.37;75.53
72114;SHT31;59989;46.220;19.888;2022-08-03T03:02:36;18.32;75.83
72114;SHT31;59989;46.220;19.888;2022-08-03T03:05:40;18.29;76.05
72114;SHT31;59989;46.220;19.888;2022-08-03T03:08:59;18.22;75.97
72114;SHT31;59989;46.220;19.888;2022-08-03T03:12:02;18.20;76.05
72114;SHT31;59989;46.220;19.888;2022-08-03T03:15:05;18.22;76.38
72114;SHT31;59989;46.220;19.888;2022-08-03T03:18:09;18.34;76.51
72114;SHT31;59989;46.220;19.888;2022-08-03T03:21:15;18.30;75.50
72114;SHT31;59989;46.220;19.888;2022-08-03T03:24:19;18.22;75.74
72114;SHT31;59989;46.220;19.888;2022-08-03T03:27:22;18.20;75.98
72114;SHT31;59989;46.220;19.888;2022-08-03T03:30:26;18.18;76.38
72114;SHT31;59989;46.220;19.888;2022-08-03T03:33:28;18.50;75.40
72114;SHT31;59989;46.220;19.888;2022-08-03T03:36:31;18.58;75.99
72114;SHT31;59989;46.220;19.888;2022-08-03T03:39:33;18.54;75.56
72114;SHT31;59989;46.220;19.888;2022-08-03T03:42:37;18.63;75.09
72114;SHT31;59989;46.220;19.888;2022-08-03T03:45:40;18.74;74.49
72114;SHT31;59989;46.220;19.888;2022-08-03T03:48:44;18.84;74.18
72114;SHT31;59989;46.220;19.888;2022-08-03T03:51:46;18.88;73.98
72114;SHT31;59989;46.220;19.888;2022-08-03T03:54:49;18.88;74.31
72114;SHT31;59989;46.220;19.888;2022-08-03T03:57:51;18.78;74.98
72114;SHT31;59989;46.220;19.888;2022-08-03T04:00:54;18.68;74.74
72114;SHT31;59989;46.220;19.888;2022-08-03T04:03:56;18.63;73.68
72114;SHT31;59989;46.220;19.888;2022-08-03T04:07:00;18.58;73.56
72114;SHT31;59989;46.220;19.888;2022-08-03T04:10:24;18.79;75.00
72114;SHT31;59989;46.220;19.888;2022-08-03T04:13:54;19.01;74.35
72114;SHT31;59989;46.220;19.888;2022-08-03T04:17:06;19.16;74.13
72114;SHT31;59989;46.220;19.888;2022-08-03T04:20:12;19.12;74.56
72114;SHT31;59989;46.220;19.888;2022-08-03T04:23:16;19.12;74.45
72114;SHT31;59989;46.220;19.888;2022-08-03T04:26:22;19.13;74.28
72114;SHT31;59989;46.220;19.888;2022-08-03T04:29:26;19.16;74.12
72114;SHT31;59989;46.220;19.888;2022-08-03T04:32:30;19.42;73.16
72114;SHT31;59989;46.220;19.888;2022-08-03T04:35:34;19.60;72.56
72114;SHT31;59989;46.220;19.888;2022-08-03T04:39:13;19.74;72.14
72114;SHT31;59989;46.220;19.888;2022-08-03T04:42:19;19.82;71.96
72114;SHT31;59989;46.220;19.888;2022-08-03T04:45:24;19.91;71.65
72114;SHT31;59989;46.220;19.888;2022-08-03T04:48:27;20.02;71.36
72114;SHT31;59989;46.220;19.888;2022-08-03T04:51:30;20.11;70.75
72114;SHT31;59989;46.220;19.888;2022-08-03T04:54:43;20.18;70.92
72114;SHT31;59989;46.220;19.888;2022-08-03T04:57:52;20.19;71.05
72114;SHT31;59989;46.220;19.888;2022-08-03T05:00:54;20.25;71.10
72114;SHT31;59989;46.220;19.888;2022-08-03T05:03:57;20.30;70.86
72114;SHT31;59989;46.220;19.888;2022-08-03T05:06:59;20.39;71.09
72114;SHT31;59989;46.220;19.888;2022-08-03T05:10:14;20.49;70.98
72114;SHT31;59989;46.220;19.888;2022-08-03T05:13:17;20.62;70.79
72114;SHT31;59989;46.220;19.888;2022-08-03T05:16:20;20.77;70.74
72114;SHT31;59989;46.220;19.888;2022-08-03T05:19:23;20.96;70.28
72114;SHT31;59989;46.220;19.888;2022-08-03T05:22:26;21.04;70.15
72114;SHT31;59989;46.220;19.888;2022-08-03T05:25:29;21.20;69.85
72114;SHT31;59989;46.220;19.888;2022-08-03T05:28:32;21.35;69.54
72114;SHT31;59989;46.220;19.888;2022-08-03T05:31:34;21.45;69.23
72114;SHT31;59989;46.220;19.888;2022-08-03T05:34:36;21.55;69.01
72114;SHT31;59989;46.220;19.888;2022-08-03T05:37:39;21.72;68.57
72114;SHT31;59989;46.220;19.888;2022-08-03T05:40:57;21.82;68.25
72114;SHT31;59989;46.220;19.888;2022-08-03T05:44:19;21.89;68.36
72114;SHT31;59989;46.220;19.888;2022-08-03T05:47:21;22.07;67.89
72114;SHT31;59989;46.220;19.888;2022-08-03T05:50:24;22.23;67.59
72114;SHT31;59989;46.220;19.888;2022-08-03T05:53:27;22.24;65.31
72114;SHT31;59989;46.220;19.888;2022-08-03T05:56:29;22.36;67.28
72114;SHT31;59989;46.220;19.888;2022-08-03T05:59:31;22.43;67.26
72114;SHT31;59989;46.220;19.888;2022-08-03T06:02:40;22.62;66.63
72114;SHT31;59989;46.220;19.888;2022-08-03T06:05:42;22.73;65.38
72114;SHT31;59989;46.220;19.888;2022-08-03T06:09:01;22.81;65.99
72114;SHT31;59989;46.220;19.888;2022-08-03T06:12:04;22.89;63.54
72114;SHT31;59989;46.220;19.888;2022-08-03T06:15:07;23.05;65.60
72114;SHT31;59989;46.220;19.888;2022-08-03T06:18:12;23.18;65.30
72114;SHT31;59989;46.220;19.888;2022-08-03T06:21:15;23.33;64.51
72114;SHT31;59989;46.220;19.888;2022-08-03T06:24:17;23.56;63.60
72114;SHT31;59989;46.220;19.888;2022-08-03T06:27:26;23.66;63.15
72114;SHT31;59989;46.220;19.888;2022-08-03T06:30:39;23.91;62.85
72114;SHT31;59989;46.220;19.888;2022-08-03T06:33:41;24.01;62.55
72114;SHT31;59989;46.220;19.888;2022-08-03T06:37:04;24.14;62.00
72114;SHT31;59989;46.220;19.888;2022-08-03T06:40:07;24.28;61.80
72114;SHT31;59989;46.220;19.888;2022-08-03T06:43:14;24.49;61.66
72114;SHT31;59989;46.220;19.888;2022-08-03T06:46:17;24.72;60.44
72114;SHT31;59989;46.220;19.888;2022-08-03T06:49:20;24.94;60.40
72114;SHT31;59989;46.220;19.888;2022-08-03T06:52:22;25.08;59.52
72114;SHT31;59989;46.220;19.888;2022-08-03T06:55:39;25.45;58.94
72114;SHT31;59989;46.220;19.888;2022-08-03T06:58:43;25.73;58.26
72114;SHT31;59989;46.220;19.888;2022-08-03T07:01:46;26.03;57.21
72114;SHT31;59989;46.220;19.888;2022-08-03T07:04:48;26.33;56.24
72114;SHT31;59989;46.220;19.888;2022-08-03T07:07:55;26.61;55.64
72114;SHT31;59989;46.220;19.888;2022-08-03T07:10:58;26.74;53.58
72114;SHT31;59989;46.220;19.888;2022-08-03T07:14:01;26.96;53.17
72114;SHT31;59989;46.220;19.888;2022-08-03T07:17:03;26.98;52.52
72114;SHT31;59989;46.220;19.888;2022-08-03T07:20:13;27.19;52.11
72114;SHT31;59989;46.220;19.888;2022-08-03T07:23:16;27.54;52.57
72114;SHT31;59989;46.220;19.888;2022-08-03T07:26:20;27.63;51.63
72114;SHT31;59989;46.220;19.888;2022-08-03T07:29:23;28.11;49.52
72114;SHT31;59989;46.220;19.888;2022-08-03T07:32:26;28.26;49.75
72114;SHT31;59989;46.220;19.888;2022-08-03T07:35:29;28.26;48.75
72114;SHT31;59989;46.220;19.888;2022-08-03T07:38:34;28.42;48.80
72114;SHT31;59989;46.220;19.888;2022-08-03T07:41:37;28.56;48.64
72114;SHT31;59989;46.220;19.888;2022-08-03T07:44:42;28.96;47.46
72114;SHT31;59989;46.220;19.888;2022-08-03T07:47:45;29.03;46.70
72114;SHT31;59989;46.220;19.888;2022-08-03T07:50:55;29.36;45.94
72114;SHT31;59989;46.220;19.888;2022-08-03T07:53:57;29.69;45.98
72114;SHT31;59989;46.220;19.888;2022-08-03T07:57:02;29.84;45.26
72114;SHT31;59989;46.220;19.888;2022-08-03T08:00:06;29.99;44.11
72114;SHT31;59989;46.220;19.888;2022-08-03T08:03:16;30.10;42.70
72114;SHT31;59989;46.220;19.888;2022-08-03T08:06:18;29.92;43.68
72114;SHT31;59989;46.220;19.888;2022-08-03T08:09:21;29.89;42.50
72114;SHT31;59989;46.220;19.888;2022-08-03T08:12:24;30.06;42.34
72114;SHT31;59989;46.220;19.888;2022-08-03T08:15:27;30.03;41.48
72114;SHT31;59989;46.220;19.888;2022-08-03T08:18:29;30.35;41.14
72114;SHT31;59989;46.220;19.888;2022-08-03T08:21:32;30.51;40.63
72114;SHT31;59989;46.220;19.888;2022-08-03T08:24:55;30.74;40.37
72114;SHT31;59989;46.220;19.888;2022-08-03T08:27:58;30.67;40.55
72114;SHT31;59989;46.220;19.888;2022-08-03T08:31:25;30.93;37.35
72114;SHT31;59989;46.220;19.888;2022-08-03T08:34:27;31.23;37.39
72114;SHT31;59989;46.220;19.888;2022-08-03T08:37:34;31.31;38.28
72114;SHT31;59989;46.220;19.888;2022-08-03T08:40:38;30.98;37.84
72114;SHT31;59989;46.220;19.888;2022-08-03T08:43:41;30.92;37.93
72114;SHT31;59989;46.220;19.888;2022-08-03T08:46:44;31.00;39.64
72114;SHT31;59989;46.220;19.888;2022-08-03T08:49:47;31.19;38.34
72114;SHT31;59989;46.220;19.888;2022-08-03T08:53:11;31.68;37.22
72114;SHT31;59989;46.220;19.888;2022-08-03T08:56:23;31.77;38.30
72114;SHT31;59989;46.220;19.888;2022-08-03T08:59:27;31.98;36.92
72114;SHT31;59989;46.220;19.888;2022-08-03T09:02:49;31.96;36.58
72114;SHT31;59989;46.220;19.888;2022-08-03T09:05:52;32.70;36.04
72114;SHT31;59989;46.220;19.888;2022-08-03T09:08:57;32.86;34.18
72114;SHT31;59989;46.220;19.888;2022-08-03T09:12:00;32.80;33.60
72114;SHT31;59989;46.220;19.888;2022-08-03T09:18:29;32.70;34.54
72114;SHT31;59989;46.220;19.888;2022-08-03T09:21:34;32.80;35.68
72114;SHT31;59989;46.220;19.888;2022-08-03T09:24:37;32.94;34.90
72114;SHT31;59989;46.220;19.888;2022-08-03T09:27:45;33.32;34.11
72114;SHT31;59989;46.220;19.888;2022-08-03T09:30:59;33.44;33.90
72114;SHT31;59989;46.220;19.888;2022-08-03T09:34:04;33.11;34.16
72114;SHT31;59989;46.220;19.888;2022-08-03T09:37:17;33.06;33.74
72114;SHT31;59989;46.220;19.888;2022-08-03T09:40:34;33.35;34.30
72114;SHT31;59989;46.220;19.888;2022-08-03T09:43:45;33.83;33.51
72114;SHT31;59989;46.220;19.888;2022-08-03T09:46:49;33.83;33.08
72114;SHT31;59989;46.220;19.888;2022-08-03T09:50:00;34.21;34.24
72114;SHT31;59989;46.220;19.888;2022-08-03T09:53:03;34.26;33.26
72114;SHT31;59989;46.220;19.888;2022-08-03T09:56:06;34.07;32.33
72114;SHT31;59989;46.220;19.888;2022-08-03T09:59:30;34.78;31.45
72114;SHT31;59989;46.220;19.888;2022-08-03T10:02:33;34.67;31.86
72114;SHT31;59989;46.220;19.888;2022-08-03T10:05:35;34.95;32.29
72114;SHT31;59989;46.220;19.888;2022-08-03T10:08:39;35.60;31.23
72114;SHT31;59989;46.220;19.888;2022-08-03T10:11:43;35.06;30.90
72114;SHT31;59989;46.220;19.888;2022-08-03T10:14:47;35.25;30.83
72114;SHT31;59989;46.220;19.888;2022-08-03T10:17:50;35.63;30.18
72114;SHT31;59989;46.220;19.888;2022-08-03T10:20:58;35.32;30.34
72114;SHT31;59989;46.220;19.888;2022-08-03T10:24:05;34.91;30.50
72114;SHT31;59989;46.220;19.888;2022-08-03T10:27:10;35.47;30.29
72114;SHT31;59989;46.220;19.888;2022-08-03T10:30:15;36.11;28.80
72114;SHT31;59989;46.220;19.888;2022-08-03T10:33:20;36.11;29.44
72114;SHT31;59989;46.220;19.888;2022-08-03T10:36:44;36.42;29.09
72114;SHT31;59989;46.220;19.888;2022-08-03T10:39:48;36.36;28.24
72114;SHT31;59989;46.220;19.888;2022-08-03T10:42:58;37.34;27.38
72114;SHT31;59989;46.220;19.888;2022-08-03T10:46:05;36.84;27.58
72114;SHT31;59989;46.220;19.888;2022-08-03T10:49:27;35.54;28.96
72114;SHT31;59989;46.220;19.888;2022-08-03T10:53:03;34.10;30.65
72114;SHT31;59989;46.220;19.888;2022-08-03T11:03:05;33.76;30.72
72114;SHT31;59989;46.220;19.888;2022-08-03T11:06:16;33.20;31.55
72114;SHT31;59989;46.220;19.888;2022-08-03T11:09:21;32.87;31.31
72114;SHT31;59989;46.220;19.888;2022-08-03T11:12:27;33.08;30.74
72114;SHT31;59989;46.220;19.888;2022-08-03T11:15:33;33.00;31.69
72114;SHT31;59989;46.220;19.888;2022-08-03T11:18:54;35.32;29.69
72114;SHT31;59989;46.220;19.888;2022-08-03T11:21:57;35.91;28.01
72114;SHT31;59989;46.220;19.888;2022-08-03T11:25:00;36.25;26.91
72114;SHT31;59989;46.220;19.888;2022-08-03T11:28:27;36.36;26.72
72114;SHT31;59989;46.220;19.888;2022-08-03T11:38:18;39.29;24.52
72114;SHT31;59989;46.220;19.888;2022-08-03T11:41:32;39.66;22.72
72114;SHT31;59989;46.220;19.888;2022-08-03T11:44:46;39.69;23.74
72114;SHT31;59989;46.220;19.888;2022-08-03T11:47:53;38.87;23.85
72114;SHT31;59989;46.220;19.888;2022-08-03T11:50:56;39.69;22.76
72114;SHT31;59989;46.220;19.888;2022-08-03T11:54:04;39.77;24.02
72114;SHT31;59989;46.220;19.888;2022-08-03T11:57:07;39.80;23.30
72114;SHT31;59989;46.220;19.888;2022-08-03T12:03:31;40.64;22.15
72114;SHT31;59989;46.220;19.888;2022-08-03T12:06:34;39.63;22.93
72114;SHT31;59989;46.220;19.888;2022-08-03T12:10:10;38.85;23.61
72114;SHT31;59989;46.220;19.888;2022-08-03T12:13:13;40.27;23.12
72114;SHT31;59989;46.220;19.888;2022-08-03T12:16:36;39.94;22.45
72114;SHT31;59989;46.220;19.888;2022-08-03T12:19:42;39.93;23.32
72114;SHT31;59989;46.220;19.888;2022-08-03T12:22:45;39.31;23.49
72114;SHT31;59989;46.220;19.888;2022-08-03T12:25:47;38.08;24.63
72114;SHT31;59989;46.220;19.888;2022-08-03T12:28:51;39.85;22.74
72114;SHT31;59989;46.220;19.888;2022-08-03T12:31:53;40.28;22.52
72114;SHT31;59989;46.220;19.888;2022-08-03T12:34:57;39.92;22.77
72114;SHT31;59989;46.220;19.888;2022-08-03T12:38:05;39.35;23.39
72114;SHT31;59989;46.220;19.888;2022-08-03T12:41:10;40.09;23.06
72114;SHT31;59989;46.220;19.888;2022-08-03T12:44:17;40.61;22.06
72114;SHT31;59989;46.220;19.888;2022-08-03T12:47:48;40.16;22.76
72114;SHT31;59989;46.220;19.888;2022-08-03T12:50:51;41.16;21.71
72114;SHT31;59989;46.220;19.888;2022-08-03T12:53:56;40.98;22.22
72114;SHT31;59989;46.220;19.888;2022-08-03T12:57:06;40.47;22.43
72114;SHT31;59989;46.220;19.888;2022-08-03T13:00:16;40.79;21.62
72114;SHT31;59989;46.220;19.888;2022-08-03T13:03:45;40.64;21.68
72114;SHT31;59989;46.220;19.888;2022-08-03T13:07:04;41.37;20.94
72114;SHT31;59989;46.220;19.888;2022-08-03T13:10:09;42.09;20.52
72114;SHT31;59989;46.220;19.888;2022-08-03T13:13:12;41.63;20.82
72114;SHT31;59989;46.220;19.888;2022-08-03T13:16:14;43.65;19.07
72114;SHT31;59989;46.220;19.888;2022-08-03T13:19:20;44.70;18.82
72114;SHT31;59989;46.220;19.888;2022-08-03T13:22:26;43.75;18.94
72114;SHT31;59989;46.220;19.888;2022-08-03T13:25:30;45.12;17.84
72114;SHT31;59989;46.220;19.888;2022-08-03T13:28:32;44.71;18.14
72114;SHT31;59989;46.220;19.888;2022-08-03T13:31:35;42.19;19.63
72114;SHT31;59989;46.220;19.888;2022-08-03T13:34:51;43.31;18.83
72114;SHT31;59989;46.220;19.888;2022-08-03T13:37:54;44.74;18.63
72114;SHT31;59989;46.220;19.888;2022-08-03T13:40:57;45.36;17.40
72114;SHT31;59989;46.220;19.888;2022-08-03T13:44:06;45.66;17.63
72114;SHT31;59989;46.220;19.888;2022-08-03T13:47:28;46.35;17.20
72114;SHT31;59989;46.220;19.888;2022-08-03T13:50:32;46.10;16.67
72114;SHT31;59989;46.220;19.888;2022-08-03T13:53:34;47.43;16.05
72114;SHT31;59989;46.220;19.888;2022-08-03T13:56:36;41.16;20.29
72114;SHT31;59989;46.220;19.888;2022-08-03T13:59:39;38.40;22.88
72114;SHT31;59989;46.220;19.888;2022-08-03T14:02:41;41.92;20.75
72114;SHT31;59989;46.220;19.888;2022-08-03T14:05:44;42.63;19.23
72114;SHT31;59989;46.220;19.888;2022-08-03T14:08:47;44.37;18.41
72114;SHT31;59989;46.220;19.888;2022-08-03T14:11:49;45.36;18.37
72114;SHT31;59989;46.220;19.888;2022-08-03T14:15:09;43.89;18.81
72114;SHT31;59989;46.220;19.888;2022-08-03T14:18:14;44.21;18.38
72114;SHT31;59989;46.220;19.888;2022-08-03T14:21:34;40.30;21.59
72114;SHT31;59989;46.220;19.888;2022-08-03T14:24:37;42.48;19.88
72114;SHT31;59989;46.220;19.888;2022-08-03T14:27:39;42.08;19.67
72114;SHT31;59989;46.220;19.888;2022-08-03T14:30:43;41.80;19.88
72114;SHT31;59989;46.220;19.888;2022-08-03T14:33:45;42.86;18.69
72114;SHT31;59989;46.220;19.888;2022-08-03T14:36:47;44.51;17.46
72114;SHT31;59989;46.220;19.888;2022-08-03T14:39:50;45.54;17.12
72114;SHT31;59989;46.220;19.888;2022-08-03T14:43:03;46.83;16.52
72114;SHT31;59989;46.220;19.888;2022-08-03T14:46:05;45.63;17.35
72114;SHT31;59989;46.220;19.888;2022-08-03T14:49:08;46.75;16.16
72114;SHT31;59989;46.220;19.888;2022-08-03T14:52:31;47.53;16.02
72114;SHT31;59989;46.220;19.888;2022-08-03T14:55:33;47.02;15.84
72114;SHT31;59989;46.220;19.888;2022-08-03T14:58:52;45.93;16.49
72114;SHT31;59989;46.220;19.888;2022-08-03T15:01:54;48.66;14.84
72114;SHT31;59989;46.220;19.888;2022-08-03T15:05:05;46.95;15.79
72114;SHT31;59989;46.220;19.888;2022-08-03T15:08:08;45.41;16.78
72114;SHT31;59989;46.220;19.888;2022-08-03T15:11:10;44.07;17.80
72114;SHT31;59989;46.220;19.888;2022-08-03T15:14:13;42.90;18.55
72114;SHT31;59989;46.220;19.888;2022-08-03T15:17:16;41.98;19.31
72114;SHT31;59989;46.220;19.888;2022-08-03T15:20:25;41.53;19.66
72114;SHT31;59989;46.220;19.888;2022-08-03T15:23:45;42.02;19.30
72114;SHT31;59989;46.220;19.888;2022-08-03T15:26:48;41.07;19.96
72114;SHT31;59989;46.220;19.888;2022-08-03T15:29:51;38.19;22.75
72114;SHT31;59989;46.220;19.888;2022-08-03T15:33:11;36.72;25.01
72114;SHT31;59989;46.220;19.888;2022-08-03T15:36:14;38.13;23.68
72114;SHT31;59989;46.220;19.888;2022-08-03T15:39:16;39.10;22.32
72114;SHT31;59989;46.220;19.888;2022-08-03T15:42:19;40.78;20.88
72114;SHT31;59989;46.220;19.888;2022-08-03T15:45:26;38.32;23.50
72114;SHT31;59989;46.220;19.888;2022-08-03T15:48:36;39.72;22.03
72114;SHT31;59989;46.220;19.888;2022-08-03T15:51:39;40.27;21.59
72114;SHT31;59989;46.220;19.888;2022-08-03T15:54:41;39.18;22.54
72114;SHT31;59989;46.220;19.888;2022-08-03T15:57:44;39.38;22.50
72114;SHT31;59989;46.220;19.888;2022-08-03T16:01:06;35.88;26.05
72114;SHT31;59989;46.220;19.888;2022-08-03T16:04:09;36.53;25.32
72114;SHT31;59989;46.220;19.888;2022-08-03T16:07:11;35.03;26.73
72114;SHT31;59989;46.220;19.888;2022-08-03T16:10:17;34.53;27.86
72114;SHT31;59989;46.220;19.888;2022-08-03T16:13:20;33.93;28.53
72114;SHT31;59989;46.220;19.888;2022-08-03T16:16:42;33.51;29.26
72114;SHT31;59989;46.220;19.888;2022-08-03T16:19:45;33.35;29.36
72114;SHT31;59989;46.220;19.888;2022-08-03T16:22:47;33.28;29.44
72114;SHT31;59989;46.220;19.888;2022-08-03T16:25:50;33.31;31.99
72114;SHT31;59989;46.220;19.888;2022-08-03T16:28:53;33.15;30.45
72114;SHT31;59989;46.220;19.888;2022-08-03T16:31:56;33.10;31.02
72114;SHT31;59989;46.220;19.888;2022-08-03T16:34:59;32.94;30.36
72114;SHT31;59989;46.220;19.888;2022-08-03T16:38:03;32.70;30.58
72114;SHT31;59989;46.220;19.888;2022-08-03T16:41:10;32.52;30.73
72114;SHT31;59989;46.220;19.888;2022-08-03T16:44:13;32.45;30.89
72114;SHT31;59989;46.220;19.888;2022-08-03T16:47:15;32.29;30.85
72114;SHT31;59989;46.220;19.888;2022-08-03T16:50:23;32.25;30.98
72114;SHT31;59989;46.220;19.888;2022-08-03T16:53:26;32.22;31.47
72114;SHT31;59989;46.220;19.888;2022-08-03T16:56:48;32.14;32.26
72114;SHT31;59989;46.220;19.888;2022-08-03T16:59:51;32.04;32.71
72114;SHT31;59989;46.220;19.888;2022-08-03T17:02:55;31.96;33.23
72114;SHT31;59989;46.220;19.888;2022-08-03T17:05:59;31.84;32.47
72114;SHT31;59989;46.220;19.888;2022-08-03T17:09:08;31.74;33.12
72114;SHT31;59989;46.220;19.888;2022-08-03T17:12:12;31.71;35.09
72114;SHT31;59989;46.220;19.888;2022-08-03T17:15:15;31.40;33.75
72114;SHT31;59989;46.220;19.888;2022-08-03T17:18:19;31.19;34.18
72114;SHT31;59989;46.220;19.888;2022-08-03T17:21:29;31.00;35.11
72114;SHT31;59989;46.220;19.888;2022-08-03T17:24:35;30.86;35.07
72114;SHT31;59989;46.220;19.888;2022-08-03T17:27:44;30.76;35.50
72114;SHT31;59989;46.220;19.888;2022-08-03T17:31:08;30.61;35.33
72114;SHT31;59989;46.220;19.888;2022-08-03T17:34:32;30.49;37.21
72114;SHT31;59989;46.220;19.888;2022-08-03T17:37:34;30.42;36.59
72114;SHT31;59989;46.220;19.888;2022-08-03T17:40:57;30.34;36.72
72114;SHT31;59989;46.220;19.888;2022-08-03T17:44:00;30.23;37.38
72114;SHT31;59989;46.220;19.888;2022-08-03T17:47:19;30.10;39.04
72114;SHT31;59989;46.220;19.888;2022-08-03T17:50:24;29.92;38.06
72114;SHT31;59989;46.220;19.888;2022-08-03T17:53:35;29.80;38.34
72114;SHT31;59989;46.220;19.888;2022-08-03T18:00:25;29.41;38.42
72114;SHT31;59989;46.220;19.888;2022-08-03T18:03:49;29.21;38.48
72114;SHT31;59989;46.220;19.888;2022-08-03T18:07:02;29.01;38.94
72114;SHT31;59989;46.220;19.888;2022-08-03T18:10:24;28.76;38.94
72114;SHT31;59989;46.220;19.888;2022-08-03T18:13:39;28.63;39.37
72114;SHT31;59989;46.220;19.888;2022-08-03T18:16:55;28.46;39.72
72114;SHT31;59989;46.220;19.888;2022-08-03T18:20:01;28.26;39.91
72114;SHT31;59989;46.220;19.888;2022-08-03T18:23:15;28.19;40.85
72114;SHT31;59989;46.220;19.888;2022-08-03T18:26:27;28.12;40.91
72114;SHT31;59989;46.220;19.888;2022-08-03T18:29:29;27.94;40.58
72114;SHT31;59989;46.220;19.888;2022-08-03T18:32:32;27.77;41.14
72114;SHT31;59989;46.220;19.888;2022-08-03T18:35:36;27.60;41.12
72114;SHT31;59989;46.220;19.888;2022-08-03T18:38:56;27.49;41.70
72114;SHT31;59989;46.220;19.888;2022-08-03T18:42:00;27.34;42.25
72114;SHT31;59989;46.220;19.888;2022-08-03T18:45:04;27.22;42.68
72114;SHT31;59989;46.220;19.888;2022-08-03T18:48:43;27.17;42.68
72114;SHT31;59989;46.220;19.888;2022-08-03T18:51:58;27.02;43.97
72114;SHT31;59989;46.220;19.888;2022-08-03T18:55:14;26.86;44.02
72114;SHT31;59989;46.220;19.888;2022-08-03T19:01:49;26.59;44.28
72114;SHT31;59989;46.220;19.888;2022-08-03T19:05:07;26.47;44.75
72114;SHT31;59989;46.220;19.888;2022-08-03T19:08:14;26.40;45.28
72114;SHT31;59989;46.220;19.888;2022-08-03T19:11:35;26.26;46.56
72114;SHT31;59989;46.220;19.888;2022-08-03T19:15:09;26.23;45.26
72114;SHT31;59989;46.220;19.888;2022-08-03T19:18:19;26.10;45.60
72114;SHT31;59989;46.220;19.888;2022-08-03T19:21:23;25.97;45.88
72114;SHT31;59989;46.220;19.888;2022-08-03T19:24:29;25.87;46.07
72114;SHT31;59989;46.220;19.888;2022-08-03T19:27:33;25.85;46.29
72114;SHT31;59989;46.220;19.888;2022-08-03T19:30:38;25.79;46.48
72114;SHT31;59989;46.220;19.888;2022-08-03T19:33:47;25.78;46.51
72114;SHT31;59989;46.220;19.888;2022-08-03T19:36:59;25.66;47.13
72114;SHT31;59989;46.220;19.888;2022-08-03T19:40:04;25.61;46.63
72114;SHT31;59989;46.220;19.888;2022-08-03T19:43:27;25.58;46.20
72114;SHT31;59989;46.220;19.888;2022-08-03T19:46:53;25.55;47.69
72114;SHT31;59989;46.220;19.888;2022-08-03T19:50:03;25.46;47.09
72114;SHT31;59989;46.220;19.888;2022-08-03T19:53:15;25.45;47.07
72114;SHT31;59989;46.220;19.888;2022-08-03T19:56:22;25.34;47.19
72114;SHT31;59989;46.220;19.888;2022-08-03T19:59:25;25.30;47.80
72114;SHT31;59989;46.220;19.888;2022-08-03T20:02:28;25.24;47.56
72114;SHT31;59989;46.220;19.888;2022-08-03T20:05:32;25.20;47.46
72114;SHT31;59989;46.220;19.888;2022-08-03T20:09:02;25.06;47.69